Time;durP1;ratioP1;P1;durP2;ratioP2;P2;SDS_P1;SDS_P2;PMS_P1;PMS_P2;Temp;Humidity;BMP_temperature;BMP_pressure;BME280_temperature;BME280_humidity;BME280_pressure;Samples;Min_cycle;Max_cycle;Signal;HPM_P1;HPM_P2
2021/01/21 07:49:33;;;;;;;1.63;1.53;;;12.40;31.80;;;;;;4918641;28;20483;-86
2021/01/21 07:52:04;;;;;;;1.67;1.40;;;12.40;31.90;;;;;;4917946;29;20431;-87
2021/01/21 07:54:43;;;;;;;3.40;1.40;;;12.60;31.40;;;;;;4903579;29;20498;-90
2021/01/21 07:57:09;;;;;;;1.70;1.40;;;12.70;33.20;;;;;;4903543;29;20447;-92
2021/01/21 08:00:09;;;;;;;0.80;0.70;;;12.70;31.70;;;;;;4906452;29;20451;-89
2021/01/21 08:02:49;;;;;;;1.90;0.90;;;12.60;32.60;;;;;;4903889;29;20179;-90
2021/01/21 08:05:18;;;;;;;1.87;1.00;;;12.40;33.10;;;;;;4902982;29;20455;-87
2021/01/21 08:07:48;;;;;;;1.57;0.87;;;12.60;33.60;;;;;;4902735;29;20498;-87
2021/01/21 08:10:26;;;;;;;1.27;0.90;;;12.40;33.10;;;;;;4904044;29;20514;-89
2021/01/21 08:13:07;;;;;;;1.00;0.90;;;12.80;33.10;;;;;;4909180;29;20415;-90
2021/01/21 08:15:35;;;;;;;1.30;0.90;;;12.70;32.70;;;;;;4908671;29;20458;-90
2021/01/21 08:18:01;;;;;;;3.23;1.00;;;12.80;32.30;;;;;;4903239;29;20412;-87
2021/01/21 08:20:30;;;;;;;0.93;0.73;;;12.80;32.30;;;;;;4903220;29;20413;-87
2021/01/21 08:23:09;;;;;;;0.73;0.67;;;12.90;32.10;;;;;;4920212;29;20547;-89
2021/01/21 08:25:49;;;;;;;0.87;0.80;;;13.00;32.10;;;;;;4918861;29;20419;-87
2021/01/21 08:28:22;;;;;;;0.67;0.57;;;13.10;31.90;;;;;;4903219;29;20418;-88
2021/01/21 08:30:49;;;;;;;0.90;0.70;;;12.90;31.80;;;;;;4902934;29;20997;-86
2021/01/21 08:33:28;;;;;;;0.80;0.60;;;13.20;32.00;;;;;;4902788;29;20427;-88
2021/01/21 08:35:57;;;;;;;0.90;0.73;;;13.10;31.60;;;;;;4918563;29;20478;-89
2021/01/21 08:38:40;;;;;;;4.67;2.83;;;13.30;32.00;;;;;;4903801;29;20439;-88
2021/01/21 08:41:07;;;;;;;1.03;0.80;;;12.90;32.40;;;;;;4920228;29;20498;-88
2021/01/21 08:43:37;;;;;;;0.60;0.60;;;12.90;33.50;;;;;;4918636;29;20493;-87
2021/01/21 08:46:19;;;;;;;2.23;0.83;;;12.70;33.10;;;;;;4919064;29;20411;-88
2021/01/21 08:48:45;;;;;;;0.67;0.60;;;13.00;33.30;;;;;;4918888;29;21055;-86
2021/01/21 08:51:34;;;;;;;1.10;0.80;;;13.20;32.70;;;;;;4903829;29;20431;-88
2021/01/21 08:54:11;;;;;;;1.03;0.90;;;13.30;32.70;;;;;;4903643;29;20454;-86
2021/01/21 08:56:37;;;;;;;1.30;1.13;;;13.40;32.90;;;;;;4902699;29;20522;-86
2021/01/21 08:59:25;;;;;;;0.70;0.70;;;13.40;33.30;;;;;;4903930;29;20427;-86
2021/01/21 09:01:51;;;;;;;2.03;1.20;;;13.60;32.10;;;;;;4901503;29;20167;-87
2021/01/21 09:04:31;;;;;;;2.10;1.00;;;13.60;32.40;;;;;;4902716;29;20523;-88
2021/01/21 09:07:04;;;;;;;0.90;0.73;;;13.50;32.60;;;;;;4897019;29;20914;-89
2021/01/21 09:09:41;;;;;;;0.70;0.60;;;13.60;33.50;;;;;;4883778;29;20424;-86
2021/01/21 09:12:14;;;;;;;1.10;1.00;;;13.40;33.10;;;;;;4883587;29;20490;-87
2021/01/21 09:14:44;;;;;;;1.20;0.97;;;13.30;33.70;;;;;;4882878;29;20828;-86
2021/01/21 09:17:17;;;;;;;1.23;1.13;;;13.40;33.40;;;;;;4883311;29;21024;-87
2021/01/21 09:19:45;;;;;;;2.13;1.77;;;13.30;32.90;;;;;;4883125;29;20416;-86
2021/01/21 09:22:14;;;;;;;1.17;0.83;;;13.30;33.40;;;;;;4882474;29;20461;-87
2021/01/21 09:24:56;;;;;;;0.77;0.77;;;13.40;33.20;;;;;;4882885;29;20415;-86
2021/01/21 09:27:23;;;;;;;1.40;1.00;;;13.50;33.00;;;;;;4882902;29;20755;-86
2021/01/21 09:29:51;;;;;;;0.63;0.63;;;13.70;32.90;;;;;;4883276;29;20408;-86
2021/01/21 09:32:19;;;;;;;1.37;0.77;;;13.70;32.00;;;;;;4883285;29;20797;-85
2021/01/21 09:34:57;;;;;;;0.77;0.60;;;13.90;32.30;;;;;;4882933;29;21044;-86
2021/01/21 09:37:37;;;;;;;0.60;0.60;;;14.10;32.30;;;;;;4883752;29;20459;-85
2021/01/21 09:40:11;;;;;;;0.80;0.80;;;14.10;32.30;;;;;;4883813;29;20424;-87
2021/01/21 09:42:43;;;;;;;4.33;0.83;;;13.90;32.50;;;;;;4900704;29;20395;-87
2021/01/21 09:45:12;;;;;;;0.70;0.63;;;13.90;33.30;;;;;;4884149;29;20408;-88
2021/01/21 09:47:39;;;;;;;0.90;0.70;;;13.90;32.70;;;;;;4882762;29;20443;-87
2021/01/21 09:50:07;;;;;;;1.00;0.90;;;13.90;32.30;;;;;;4885933;29;20435;-87
2021/01/21 09:52:33;;;;;;;1.07;0.70;;;14.00;32.20;;;;;;4902071;29;20408;-87
2021/01/21 09:54:59;;;;;;;0.87;0.80;;;14.30;31.80;;;;;;4902107;29;20431;-87
2021/01/21 09:57:27;;;;;;;0.70;0.60;;;14.10;32.00;;;;;;4901561;29;20451;-87
2021/01/21 09:59:53;;;;;;;1.13;0.67;;;14.20;31.90;;;;;;4901202;29;20776;-86
2021/01/21 10:02:20;;;;;;;1.17;1.07;;;14.70;31.90;;;;;;4901551;29;20411;-84
2021/01/21 10:04:45;;;;;;;0.90;0.70;;;14.80;31.40;;;;;;4901262;29;20584;-87
2021/01/21 10:07:11;;;;;;;1.20;0.70;;;14.90;30.80;;;;;;4901977;29;20411;-86
2021/01/21 10:09:37;;;;;;;2.70;0.97;;;14.30;30.80;;;;;;4901555;29;20645;-87
2021/01/21 10:12:06;;;;;;;0.60;0.50;;;14.40;31.90;;;;;;4901604;29;20477;-87
2021/01/21 10:14:33;;;;;;;0.87;0.87;;;14.60;31.50;;;;;;4904031;29;20419;-87
2021/01/21 10:17:09;;;;;;;1.00;0.80;;;14.50;30.60;;;;;;4921491;29;20462;-88
2021/01/21 10:19:35;;;;;;;1.10;0.60;;;14.60;30.40;;;;;;4922368;29;20434;-87
2021/01/21 10:22:24;;;;;;;1.03;0.90;;;14.60;31.00;;;;;;4905439;29;20407;-87
2021/01/21 10:24:49;;;;;;;0.90;0.83;;;14.70;30.70;;;;;;4905751;29;20909;-87
2021/01/21 10:27:26;;;;;;;1.43;1.00;;;14.60;31.10;;;;;;4905634;29;20415;-88
2021/01/21 10:29:55;;;;;;;0.70;0.60;;;14.50;31.20;;;;;;4906762;29;20200;-88
2021/01/21 10:32:23;;;;;;;0.80;0.70;;;14.50;31.10;;;;;;4905202;29;20774;-86
2021/01/21 10:34:48;;;;;;;0.83;0.83;;;14.50;31.20;;;;;;4905284;29;20517;-87
2021/01/21 10:37:16;;;;;;;1.90;1.00;;;14.60;31.30;;;;;;4905475;29;20591;-87
2021/01/21 10:39:42;;;;;;;1.13;0.97;;;14.30;31.90;;;;;;4905787;29;20306;-87
2021/01/21 10:42:08;;;;;;;1.57;1.27;;;14.70;31.20;;;;;;4905641;29;20443;-87
2021/01/21 10:44:33;;;;;;;0.90;0.70;;;14.70;30.60;;;;;;4905322;29;20170;-87
2021/01/21 10:46:59;;;;;;;1.13;0.53;;;15.10;30.60;;;;;;4905655;29;20490;-87
2021/01/21 10:49:25;;;;;;;1.63;0.70;;;15.30;30.00;;;;;;4906644;29;20278;-89
2021/01/21 10:51:51;;;;;;;1.20;0.93;;;15.30;29.60;;;;;;4903488;29;20175;-88
2021/01/21 10:54:17;;;;;;;0.57;0.50;;;15.50;29.40;;;;;;4886986;29;20468;-88
2021/01/21 10:56:43;;;;;;;1.40;0.70;;;15.40;29.20;;;;;;4886930;29;20210;-88
2021/01/21 10:59:17;;;;;;;1.10;1.00;;;15.50;29.40;;;;;;4903990;29;20511;-88
2021/01/21 11:01:42;;;;;;;1.40;1.03;;;15.20;29.40;;;;;;4888448;29;20179;-88
2021/01/21 11:04:08;;;;;;;1.37;0.93;;;15.00;29.80;;;;;;4888671;29;20428;-87
2021/01/21 11:06:34;;;;;;;1.10;0.93;;;15.20;29.60;;;;;;4886923;29;20208;-85
2021/01/21 11:09:00;;;;;;;1.30;0.93;;;15.40;29.70;;;;;;4886175;29;20194;-85
2021/01/21 11:11:25;;;;;;;1.13;0.70;;;15.70;29.30;;;;;;4886114;29;20211;-87
2021/01/21 11:13:54;;;;;;;0.77;0.73;;;15.80;29.30;;;;;;4886760;29;20427;-87
2021/01/21 11:16:27;;;;;;;1.57;0.80;;;15.90;29.60;;;;;;4887566;29;20207;-87
2021/01/21 11:18:58;;;;;;;1.17;0.80;;;15.70;29.40;;;;;;4886172;29;20427;-87
2021/01/21 11:21:24;;;;;;;1.00;1.00;;;15.40;29.80;;;;;;4902583;29;20413;-89
2021/01/21 11:23:49;;;;;;;1.33;0.80;;;15.60;29.90;;;;;;4886882;29;20417;-85
2021/01/21 11:26:15;;;;;;;1.37;0.90;;;15.80;29.80;;;;;;4885783;29;20813;-89
2021/01/21 11:28:41;;;;;;;1.80;0.90;;;15.90;29.10;;;;;;4885568;29;20203;-87
2021/01/21 11:31:06;;;;;;;1.20;0.70;;;16.00;29.00;;;;;;4886125;29;20272;-88
2021/01/21 11:33:32;;;;;;;0.83;0.80;;;15.70;28.90;;;;;;4886599;29;20207;-88
2021/01/21 11:35:58;;;;;;;2.03;1.00;;;16.20;28.90;;;;;;4887158;29;20203;-89
2021/01/21 11:38:24;;;;;;;0.80;0.77;;;16.40;28.70;;;;;;4887716;29;20194;-88
2021/01/21 11:40:51;;;;;;;1.30;0.90;;;16.50;28.30;;;;;;4887664;29;20187;-91
2021/01/21 11:43:16;;;;;;;0.83;0.80;;;16.40;28.70;;;;;;4886259;29;20168;-87
2021/01/21 11:45:44;;;;;;;1.23;0.80;;;16.30;28.60;;;;;;4886436;29;20426;-88
2021/01/21 11:48:10;;;;;;;0.70;0.60;;;16.40;28.70;;;;;;4887162;29;20318;-87
2021/01/21 11:50:39;;;;;;;0.70;0.60;;;16.30;28.60;;;;;;4901523;29;20577;-89
2021/01/21 11:53:06;;;;;;;0.80;0.60;;;16.30;28.60;;;;;;4892597;29;20758;-87
2021/01/21 11:55:31;;;;;;;0.97;0.90;;;16.30;28.60;;;;;;4893662;29;20424;-88
2021/01/21 11:57:57;;;;;;;0.97;0.87;;;16.00;28.50;;;;;;4895943;29;20479;-86
2021/01/21 12:00:23;;;;;;;0.90;0.70;;;15.90;29.30;;;;;;4885936;29;20228;-85
2021/01/21 12:02:50;;;;;;;2.20;0.90;;;15.90;29.20;;;;;;4895304;29;20168;-88
2021/01/21 12:05:16;;;;;;;1.27;0.70;;;16.10;29.10;;;;;;4900920;29;20430;-87
2021/01/21 12:07:42;;;;;;;0.80;0.70;;;16.40;28.70;;;;;;4898358;29;20421;-86
2021/01/21 12:10:08;;;;;;;2.63;0.73;;;16.40;28.70;;;;;;4896479;29;20422;-85
2021/01/21 12:12:35;;;;;;;2.60;2.07;;;16.60;28.80;;;;;;4904323;29;20173;-86
2021/01/21 12:15:00;;;;;;;1.63;0.83;;;16.40;28.70;;;;;;4887521;29;20421;-87
2021/01/21 12:17:27;;;;;;;1.23;0.90;;;16.30;28.70;;;;;;4887265;29;20576;-88
2021/01/21 12:19:53;;;;;;;1.30;0.70;;;16.80;29.00;;;;;;4884505;29;20447;-87
2021/01/21 12:22:18;;;;;;;3.80;2.20;;;16.20;28.60;;;;;;4884523;29;20413;-87
2021/01/21 12:24:44;;;;;;;1.27;0.70;;;16.00;28.90;;;;;;4884613;29;20211;-87
2021/01/21 12:27:11;;;;;;;3.73;0.87;;;16.00;29.20;;;;;;4884316;29;20172;-88
2021/01/21 12:29:37;;;;;;;1.70;0.80;;;15.90;29.10;;;;;;4884127;29;20440;-87
2021/01/21 12:32:08;;;;;;;0.80;0.80;;;15.90;29.10;;;;;;4900823;29;20754;-87
2021/01/21 12:34:33;;;;;;;1.17;0.80;;;15.80;29.30;;;;;;4884776;29;20164;-87
2021/01/21 12:36:59;;;;;;;1.00;0.80;;;15.80;29.80;;;;;;4883873;29;20459;-88
2021/01/21 12:39:25;;;;;;;0.87;0.87;;;15.80;29.50;;;;;;4884452;29;20222;-87
2021/01/21 12:41:51;;;;;;;1.70;0.70;;;15.90;29.90;;;;;;4884167;29;20164;-86
2021/01/21 12:44:17;;;;;;;1.47;1.20;;;15.70;30.00;;;;;;4883920;29;20463;-81
2021/01/21 12:46:42;;;;;;;1.40;1.20;;;15.50;29.70;;;;;;4881999;29;20182;-81
2021/01/21 12:49:08;;;;;;;1.90;1.80;;;15.80;30.00;;;;;;4899116;29;20563;-81
2021/01/21 12:51:34;;;;;;;1.20;1.07;;;15.80;29.80;;;;;;4882089;29;20227;-81
2021/01/21 12:54:00;;;;;;;1.47;1.00;;;15.90;29.90;;;;;;4881926;29;20178;-81
2021/01/21 12:56:25;;;;;;;0.80;0.73;;;16.00;29.70;;;;;;4898737;29;20199;-81
2021/01/21 12:58:51;;;;;;;1.53;0.70;;;16.20;29.80;;;;;;4898870;29;20591;-81
2021/01/21 13:01:17;;;;;;;1.03;1.00;;;15.90;29.70;;;;;;4882644;29;20175;-80
2021/01/21 13:03:49;;;;;;;1.00;0.77;;;16.00;30.00;;;;;;4882134;29;20834;-82
2021/01/21 13:06:15;;;;;;;0.90;0.90;;;15.70;30.00;;;;;;4898702;29;20416;-81
2021/01/21 13:08:42;;;;;;;1.73;0.80;;;15.90;30.40;;;;;;4881984;29;20419;-80
2021/01/21 13:11:07;;;;;;;0.83;0.70;;;15.80;30.50;;;;;;4881768;29;20184;-81
2021/01/21 13:13:33;;;;;;;1.17;0.90;;;15.90;30.70;;;;;;4881739;29;20443;-81
2021/01/21 13:15:59;;;;;;;1.40;1.00;;;15.90;30.60;;;;;;4881412;29;20203;-82
2021/01/21 13:18:25;;;;;;;0.80;0.70;;;15.30;32.10;;;;;;4881605;29;20175;-82
2021/01/21 13:20:51;;;;;;;1.70;0.70;;;15.20;32.90;;;;;;4881975;29;20507;-83
2021/01/21 13:23:17;;;;;;;2.80;1.00;;;15.10;32.60;;;;;;4881692;29;20561;-83
2021/01/21 13:25:44;;;;;;;1.77;1.50;;;15.00;33.40;;;;;;4881572;29;20176;-81
2021/01/21 13:28:10;;;;;;;2.30;0.70;;;15.20;33.60;;;;;;4881851;29;20910;-85
2021/01/21 13:30:36;;;;;;;1.30;0.87;;;15.10;33.40;;;;;;4897697;29;20420;-84
2021/01/21 13:33:03;;;;;;;0.83;0.70;;;15.00;34.00;;;;;;4882181;29;20412;-86
2021/01/21 13:35:28;;;;;;;1.60;0.83;;;15.10;34.10;;;;;;4881499;29;20413;-82
2021/01/21 13:37:54;;;;;;;1.73;0.87;;;15.10;33.80;;;;;;4881777;29;20419;-82
2021/01/21 13:40:20;;;;;;;0.97;0.83;;;15.30;33.40;;;;;;4881473;29;20172;-82
2021/01/21 13:42:46;;;;;;;1.00;0.90;;;15.00;33.30;;;;;;4899403;29;20164;-85
2021/01/21 13:45:12;;;;;;;1.80;1.40;;;15.30;33.00;;;;;;4882158;29;20774;-81
2021/01/21 13:47:38;;;;;;;2.10;1.20;;;15.50;32.50;;;;;;4881114;29;20498;-80
2021/01/21 13:50:04;;;;;;;0.80;0.70;;;15.70;32.50;;;;;;4884256;29;20428;-81
2021/01/21 13:52:30;;;;;;;1.93;1.47;;;15.60;31.80;;;;;;4885283;29;20215;-81
2021/01/21 13:54:55;;;;;;;1.07;0.70;;;15.60;32.40;;;;;;4885355;29;20474;-81
2021/01/21 13:57:21;;;;;;;1.83;1.20;;;15.80;32.10;;;;;;4885066;29;20838;-81
2021/01/21 13:59:47;;;;;;;2.07;1.20;;;15.90;31.90;;;;;;4885078;29;20180;-82
2021/01/21 14:02:12;;;;;;;1.30;1.20;;;16.00;32.10;;;;;;4886004;29;20171;-87
2021/01/21 14:04:40;;;;;;;1.70;1.20;;;15.90;32.00;;;;;;4887569;29;20186;-88
2021/01/21 14:07:05;;;;;;;1.63;1.50;;;15.70;31.50;;;;;;4903901;29;20203;-90
2021/01/21 14:09:31;;;;;;;2.20;1.30;;;15.90;31.90;;;;;;4886981;29;20752;-88
2021/01/21 14:11:57;;;;;;;1.63;1.03;;;15.60;32.10;;;;;;4886328;29;20316;-89
2021/01/21 14:14:22;;;;;;;0.97;0.90;;;15.20;32.90;;;;;;4887423;29;20213;-89
2021/01/21 14:16:49;;;;;;;0.77;0.70;;;15.00;33.20;;;;;;4887486;29;20259;-88
2021/01/21 14:19:15;;;;;;;1.10;1.00;;;14.80;33.60;;;;;;4887260;29;20171;-90
2021/01/21 14:21:42;;;;;;;2.70;1.17;;;15.10;34.30;;;;;;4905095;29;20470;-88
2021/01/21 14:24:12;;;;;;;3.37;1.00;;;15.50;34.20;;;;;;4887835;29;20247;-89
2021/01/21 14:26:39;;;;;;;1.20;0.90;;;15.10;33.70;;;;;;4887198;29;20776;-88
2021/01/21 14:29:04;;;;;;;1.00;0.83;;;15.10;33.90;;;;;;4904919;29;20404;-88
2021/01/21 14:31:30;;;;;;;1.20;1.00;;;15.20;33.80;;;;;;4904007;29;20408;-89
2021/01/21 14:33:56;;;;;;;1.40;1.30;;;15.60;34.00;;;;;;4889019;29;20220;-89
2021/01/21 14:36:24;;;;;;;1.20;1.10;;;15.20;33.50;;;;;;4887236;29;20199;-87
2021/01/21 14:38:49;;;;;;;1.47;0.90;;;15.10;33.40;;;;;;4887923;29;20645;-89
2021/01/21 14:41:15;;;;;;;1.20;1.10;;;15.20;33.70;;;;;;4887714;29;20469;-89
2021/01/21 14:43:41;;;;;;;2.53;1.50;;;15.00;34.20;;;;;;4887108;29;20776;-88
2021/01/21 14:46:07;;;;;;;2.27;1.20;;;15.10;33.80;;;;;;4888653;29;20427;-87
2021/01/21 14:48:33;;;;;;;1.87;1.10;;;15.00;33.40;;;;;;4887904;29;20560;-89
2021/01/21 14:50:58;;;;;;;1.50;1.20;;;15.20;33.70;;;;;;4888005;29;20183;-88
2021/01/21 14:53:24;;;;;;;1.27;1.17;;;14.90;33.70;;;;;;4904984;29;20185;-90
2021/01/21 14:55:50;;;;;;;1.23;0.77;;;14.90;34.10;;;;;;4888262;29;20295;-89
2021/01/21 14:58:16;;;;;;;1.60;1.03;;;15.10;34.20;;;;;;4888176;29;20168;-89
2021/01/21 15:00:42;;;;;;;1.13;1.00;;;14.90;34.10;;;;;;4887755;29;20175;-89
2021/01/21 15:03:08;;;;;;;1.27;1.17;;;14.80;34.30;;;;;;4888425;29;20436;-90
2021/01/21 15:05:34;;;;;;;1.10;1.00;;;14.70;34.90;;;;;;4896942;29;20415;-89
2021/01/21 15:08:01;;;;;;;3.37;1.13;;;14.60;34.90;;;;;;4905468;29;20415;-89
2021/01/21 15:10:27;;;;;;;1.37;0.80;;;14.30;34.70;;;;;;4905248;29;20274;-88
2021/01/21 15:12:52;;;;;;;0.93;0.83;;;14.70;35.20;;;;;;4906202;29;20914;-88
2021/01/21 15:15:18;;;;;;;0.87;0.80;;;14.40;35.50;;;;;;4905423;29;20171;-88
2021/01/21 15:17:44;;;;;;;1.00;0.90;;;14.60;35.20;;;;;;4905964;29;20207;-88
2021/01/21 15:20:10;;;;;;;1.67;1.03;;;14.70;35.00;;;;;;4907033;29;20171;-88
2021/01/21 15:22:36;;;;;;;0.87;0.87;;;14.80;34.80;;;;;;4905703;29;20175;-88
2021/01/21 15:25:01;;;;;;;1.50;1.20;;;14.60;34.90;;;;;;4921494;29;20506;-88
2021/01/21 15:27:28;;;;;;;1.43;1.30;;;14.50;34.70;;;;;;4905256;29;20179;-87
2021/01/21 15:29:54;;;;;;;1.30;1.20;;;15.10;34.50;;;;;;4905289;29;20175;-88
2021/01/21 15:32:21;;;;;;;1.87;1.20;;;15.00;34.50;;;;;;4906050;29;20825;-88
2021/01/21 15:34:46;;;;;;;1.37;1.17;;;14.90;34.50;;;;;;4905584;29;20256;-87
2021/01/21 15:37:13;;;;;;;2.43;1.00;;;14.90;34.40;;;;;;4921398;29;20458;-87
2021/01/21 15:39:39;;;;;;;1.77;1.23;;;15.10;34.70;;;;;;4905098;29;20267;-87
2021/01/21 15:42:09;;;;;;;1.17;1.07;;;14.70;35.00;;;;;;4905246;29;20415;-87
2021/01/21 15:44:37;;;;;;;3.73;1.60;;;14.70;35.00;;;;;;4905134;29;20170;-87
2021/01/21 15:47:02;;;;;;;1.10;1.00;;;14.80;34.90;;;;;;4905056;29;20419;-87
2021/01/21 15:49:28;;;;;;;2.10;1.77;;;14.80;34.30;;;;;;4905612;29;20473;-88
2021/01/21 15:51:56;;;;;;;2.30;1.10;;;14.70;35.00;;;;;;4905659;29;20167;-88
2021/01/21 15:54:22;;;;;;;1.30;1.20;;;14.60;35.00;;;;;;4905124;29;20163;-87
2021/01/21 15:56:47;;;;;;;1.10;1.00;;;14.50;35.60;;;;;;4904994;29;20976;-87
2021/01/21 15:59:13;;;;;;;0.80;0.80;;;14.40;35.80;;;;;;4905175;29;20171;-88
2021/01/21 16:01:42;;;;;;;1.50;0.97;;;14.70;36.20;;;;;;4905026;29;20167;-88
2021/01/21 16:04:08;;;;;;;2.13;1.27;;;14.10;36.30;;;;;;4922641;29;20170;-89
2021/01/21 16:06:33;;;;;;;1.47;1.10;;;14.20;35.60;;;;;;4923708;29;20396;-88
2021/01/21 16:08:59;;;;;;;2.17;1.30;;;14.00;36.50;;;;;;4906971;29;20203;-89
2021/01/21 16:11:25;;;;;;;1.13;0.90;;;13.90;37.30;;;;;;4907388;29;20163;-89
2021/01/21 16:13:50;;;;;;;1.40;1.30;;;13.90;38.50;;;;;;4906346;29;20262;-88
2021/01/21 16:16:16;;;;;;;1.70;0.90;;;13.60;38.60;;;;;;4906345;29;20205;-89
2021/01/21 16:18:42;;;;;;;2.07;1.20;;;13.40;39.30;;;;;;4922564;29;20167;-89
2021/01/21 16:21:10;;;;;;;2.17;1.50;;;13.60;39.50;;;;;;4907366;29;20492;-88
2021/01/21 16:23:36;;;;;;;3.07;1.67;;;13.50;39.50;;;;;;4906242;29;20618;-89
2021/01/21 16:26:01;;;;;;;1.67;1.20;;;14.00;39.40;;;;;;4908297;29;20496;-91
2021/01/21 16:28:27;;;;;;;1.63;1.53;;;13.80;39.20;;;;;;4908183;29;20296;-88
2021/01/21 16:30:55;;;;;;;2.80;2.10;;;14.00;39.40;;;;;;4906037;29;20415;-88
2021/01/21 16:33:21;;;;;;;1.90;1.60;;;14.00;39.30;;;;;;4905588;29;20171;-89
2021/01/21 16:35:47;;;;;;;2.00;1.40;;;14.00;39.30;;;;;;4906249;29;20415;-88
2021/01/21 16:38:13;;;;;;;1.67;1.57;;;14.00;39.80;;;;;;4905821;29;20439;-89
2021/01/21 16:40:40;;;;;;;1.27;1.17;;;13.90;40.60;;;;;;4898015;29;20403;-88
2021/01/21 16:43:06;;;;;;;1.50;1.40;;;13.90;40.70;;;;;;4900153;29;20405;-88
2021/01/21 16:45:46;;;;;;;1.10;1.00;;;14.20;39.90;;;;;;4892729;29;20407;-90
2021/01/21 16:48:30;;;;;;;0.80;0.80;;;13.80;40.80;;;;;;4905734;29;20325;-90
2021/01/21 16:50:56;;;;;;;2.10;1.30;;;13.80;42.30;;;;;;4906864;29;20445;-90
2021/01/21 16:53:22;;;;;;;2.57;2.30;;;13.10;43.50;;;;;;4909427;29;20415;-90
2021/01/21 16:55:51;;;;;;;1.73;1.60;;;12.70;44.60;;;;;;4898810;29;20455;-90
2021/01/21 16:58:18;;;;;;;1.80;1.47;;;12.50;45.40;;;;;;4896388;29;20575;-90
2021/01/21 17:00:54;;;;;;;3.40;1.20;;;12.50;46.00;;;;;;4891927;29;20432;-89
2021/01/21 17:03:20;;;;;;;1.70;1.60;;;12.50;46.30;;;;;;4887859;29;20515;-88
2021/01/21 17:05:58;;;;;;;2.87;2.43;;;12.50;46.70;;;;;;4894220;29;20609;-90
2021/01/21 17:08:23;;;;;;;7.60;6.80;;;12.40;46.40;;;;;;4895256;29;20171;-89
2021/01/21 17:10:51;;;;;;;4.00;3.60;;;12.30;46.10;;;;;;4899039;29;20510;-90
2021/01/21 17:13:17;;;;;;;4.10;3.70;;;12.40;45.60;;;;;;4896814;29;20189;-90
2021/01/21 17:15:45;;;;;;;6.93;6.33;;;12.60;45.10;;;;;;4895966;29;20471;-89
2021/01/21 17:18:10;;;;;;;4.50;4.10;;;12.80;44.20;;;;;;4897873;29;20167;-87
2021/01/21 17:20:36;;;;;;;2.40;2.20;;;12.90;43.00;;;;;;4898481;29;20408;-88
2021/01/21 17:23:02;;;;;;;2.50;1.90;;;13.30;41.90;;;;;;4895294;29;20220;-89
2021/01/21 17:25:29;;;;;;;3.07;2.63;;;13.50;41.30;;;;;;4899032;29;20210;-88
2021/01/21 17:27:54;;;;;;;5.83;5.23;;;14.00;41.10;;;;;;4895739;29;20188;-89
2021/01/21 17:30:21;;;;;;;4.70;4.20;;;13.70;40.70;;;;;;4897405;29;20442;-89
2021/01/21 17:32:50;;;;;;;4.37;3.97;;;13.90;40.40;;;;;;4892822;29;20183;-88
2021/01/21 17:35:20;;;;;;;4.50;4.10;;;14.10;40.10;;;;;;4898440;29;20977;-88
2021/01/21 17:37:45;;;;;;;6.10;4.50;;;14.20;39.40;;;;;;4889861;29;20558;-89
2021/01/21 17:40:13;;;;;;;4.20;3.80;;;14.20;39.20;;;;;;4894015;29;20421;-88
2021/01/21 17:42:38;;;;;;;3.83;3.53;;;14.30;38.80;;;;;;4894185;29;20255;-88
2021/01/21 17:45:07;;;;;;;4.37;3.50;;;14.50;38.80;;;;;;4900811;29;20408;-90
2021/01/21 17:47:33;;;;;;;5.00;4.50;;;14.70;38.80;;;;;;4903876;29;20668;-89
2021/01/21 17:49:59;;;;;;;4.40;3.83;;;14.70;38.90;;;;;;4902449;29;20483;-88
2021/01/21 17:52:25;;;;;;;5.00;4.20;;;14.60;37.90;;;;;;4908642;29;20189;-89
2021/01/21 17:54:51;;;;;;;4.93;3.77;;;14.80;38.60;;;;;;4904019;29;20443;-88
2021/01/21 17:57:16;;;;;;;5.37;4.60;;;14.40;38.20;;;;;;4886311;29;20196;-89
2021/01/21 17:59:42;;;;;;;12.23;11.03;;;14.50;38.70;;;;;;4887128;29;20175;-88
2021/01/21 18:02:08;;;;;;;14.17;12.63;;;14.20;39.20;;;;;;4888229;29;20627;-88
2021/01/21 18:04:41;;;;;;;33.27;28.40;;;14.40;39.40;;;;;;4887404;29;20172;-89
2021/01/21 18:07:07;;;;;;;12.23;10.33;;;14.10;39.50;;;;;;4890685;29;20183;-89
2021/01/21 18:09:34;;;;;;;3.20;2.90;;;14.50;39.30;;;;;;4895140;29;20416;-89
2021/01/21 18:12:03;;;;;;;5.03;3.63;;;14.20;38.40;;;;;;4919592;29;20253;-90
2021/01/21 18:15:12;;;;;;;229.67;205.60;;;14.30;38.80;;;;;;4901302;29;20403;-88
2021/01/21 18:17:38;;;;;;;33.70;29.43;;;14.10;37.70;;;;;;4904121;29;20968;-89
2021/01/21 18:20:20;;;;;;;9.80;8.80;;;13.90;37.70;;;;;;4905881;29;20459;-88
2021/01/21 18:22:46;;;;;;;8.17;7.17;;;13.90;36.60;;;;;;4904486;29;20415;-91
2021/01/21 18:25:17;;;;;;;5.33;4.53;;;13.90;36.80;;;;;;4904468;29;20940;-90
2021/01/21 18:27:43;;;;;;;5.63;5.03;;;13.60;36.90;;;;;;4904496;29;20817;-89
2021/01/21 18:30:10;;;;;;;10.50;9.60;;;13.50;36.40;;;;;;4904171;29;20447;-91
2021/01/21 18:32:45;;;;;;;5.47;4.07;;;13.30;36.70;;;;;;4904882;29;20171;-91
2021/01/21 18:35:11;;;;;;;7.00;6.10;;;13.80;36.30;;;;;;4904965;29;20426;-88
2021/01/21 18:37:38;;;;;;;4.20;3.20;;;13.50;36.20;;;;;;4907047;29;20458;-91
2021/01/21 18:40:10;;;;;;;6.50;5.83;;;13.40;36.50;;;;;;4906440;29;20498;-88
2021/01/21 18:42:38;;;;;;;6.83;5.73;;;13.40;36.60;;;;;;4905864;29;20475;-90
2021/01/21 18:45:06;;;;;;;8.63;6.77;;;13.70;36.60;;;;;;4908175;29;20419;-90
2021/01/21 18:47:32;;;;;;;6.60;6.00;;;13.80;36.50;;;;;;4905901;29;20526;-88
2021/01/21 18:49:58;;;;;;;2.80;2.60;;;13.90;37.20;;;;;;4906751;29;20522;-90
2021/01/21 18:52:25;;;;;;;3.57;2.90;;;13.80;38.50;;;;;;4906701;29;20423;-89
2021/01/21 18:54:51;;;;;;;2.73;2.50;;;14.40;39.30;;;;;;4906474;29;20175;-89
2021/01/21 18:57:17;;;;;;;2.90;2.57;;;13.80;38.40;;;;;;4905401;29;20461;-88
2021/01/21 18:59:42;;;;;;;4.93;2.73;;;13.80;38.20;;;;;;4892050;29;20168;-87
2021/01/21 19:02:08;;;;;;;4.33;3.20;;;13.70;38.10;;;;;;4895967;29;20415;-88
2021/01/21 19:04:34;;;;;;;3.33;2.67;;;13.70;38.60;;;;;;4895629;29;20199;-88
2021/01/21 19:06:59;;;;;;;3.50;2.73;;;13.70;38.50;;;;;;4899409;29;20265;-90
2021/01/21 19:09:25;;;;;;;3.53;2.43;;;13.60;38.50;;;;;;4905310;29;20171;-91
2021/01/21 19:11:53;;;;;;;3.43;2.03;;;13.40;38.50;;;;;;4904812;29;20183;-91
2021/01/21 19:14:19;;;;;;;1.83;1.73;;;13.20;37.70;;;;;;4904787;29;20175;-88
2021/01/21 19:16:44;;;;;;;2.60;2.30;;;13.50;36.90;;;;;;4903592;29;20497;-89
2021/01/21 19:19:11;;;;;;;4.43;3.53;;;13.40;37.60;;;;;;4914137;29;20180;-89
2021/01/21 19:21:56;;;;;;;3.40;2.43;;;13.20;37.30;;;;;;4893548;29;20182;-89
2021/01/21 19:24:21;;;;;;;5.00;3.90;;;13.20;38.00;;;;;;4906043;29;20425;-91
2021/01/21 19:26:48;;;;;;;4.97;4.47;;;13.20;37.70;;;;;;4906413;29;20430;-90
2021/01/21 19:29:14;;;;;;;13.10;8.57;;;13.30;38.30;;;;;;4905801;29;20185;-91
2021/01/21 19:32:04;;;;;;;7.47;5.60;;;13.40;38.00;;;;;;4905076;29;20779;-90
2021/01/21 19:34:30;;;;;;;6.33;4.60;;;13.40;37.80;;;;;;4904342;29;20175;-90
2021/01/21 19:36:57;;;;;;;5.13;4.67;;;13.30;38.70;;;;;;4900244;29;20470;-89
2021/01/21 19:39:23;;;;;;;3.70;2.97;;;12.90;38.90;;;;;;4905380;29;20191;-90
2021/01/21 19:41:51;;;;;;;8.50;7.10;;;12.80;38.20;;;;;;4907006;29;20488;-90
2021/01/21 19:44:17;;;;;;;7.17;5.20;;;12.70;38.30;;;;;;4906207;29;20163;-90
2021/01/21 19:46:44;;;;;;;3.97;3.57;;;12.80;38.60;;;;;;4905424;29;20447;-90
2021/01/21 19:49:14;;;;;;;7.43;5.30;;;13.00;39.10;;;;;;4871041;29;1002678;-89
2021/01/21 19:51:40;;;;;;;4.53;3.73;;;12.90;38.60;;;;;;4906326;29;20196;-90
2021/01/21 19:54:11;;;;;;;6.87;6.17;;;13.00;38.30;;;;;;4906526;29;20423;-90
2021/01/21 19:56:37;;;;;;;5.57;5.07;;;13.00;38.30;;;;;;4906222;29;20463;-90
2021/01/21 19:59:11;;;;;;;5.30;4.40;;;13.10;37.70;;;;;;4907321;29;20418;-91
2021/01/21 20:01:38;;;;;;;6.50;5.57;;;13.20;37.80;;;;;;4907123;29;20170;-87
2021/01/21 20:04:12;;;;;;;7.43;5.67;;;13.30;37.30;;;;;;4921678;29;20404;-88
2021/01/21 20:06:40;;;;;;;6.63;5.87;;;13.60;37.60;;;;;;4909637;29;20415;-92
2021/01/21 20:09:08;;;;;;;9.33;7.20;;;13.70;37.50;;;;;;4910467;29;20415;-91
2021/01/21 20:11:36;;;;;;;8.97;7.17;;;13.40;38.20;;;;;;4907072;29;20455;-91
2021/01/21 20:14:05;;;;;;;6.00;4.70;;;13.70;39.10;;;;;;4908504;29;20528;-91
2021/01/21 20:16:48;;;;;;;5.00;4.17;;;13.10;38.30;;;;;;4905559;29;20968;-91
2021/01/21 20:19:14;;;;;;;4.00;3.60;;;12.80;38.90;;;;;;4903301;29;20444;-91
2021/01/21 20:21:40;;;;;;;3.97;3.63;;;13.00;39.80;;;;;;4902244;29;20424;-91
2021/01/21 20:24:06;;;;;;;7.63;4.37;;;12.90;39.60;;;;;;4902627;29;20503;-89
2021/01/21 20:26:36;;;;;;;7.27;6.67;;;12.20;40.30;;;;;;4920216;29;20177;-89
2021/01/21 20:29:02;;;;;;;4.75;4.45;;;11.80;41.40;;;;;;4907891;29;20462;-89
2021/01/21 20:31:28;;;;;;;7.60;3.80;;;11.70;42.10;;;;;;4905182;29;20258;-89
2021/01/21 20:33:54;;;;;;;4.57;3.97;;;11.60;42.00;;;;;;4905160;29;20459;-89
2021/01/21 20:36:34;;;;;;;5.10;4.70;;;11.10;41.70;;;;;;4905147;29;20451;-88
2021/01/21 20:39:00;;;;;;;4.43;3.27;;;11.10;42.20;;;;;;4905553;29;20218;-88